Terminal Aerodrome Forecast
Issued by NWS Spokane, WA

Home | Current Version | Previous Version | Text Only | Print | Product List | Glossary On
Versions: 1 2 3 4 5 6 7 8 9 10 11 12 13 14 15 16 17 18 19 20 21 22 23
000
FTUS46 KOTX 172320
TAFGEG
TAF
KGEG 172320Z 1800/1824 VRB05KT P6SM SCT100 BKN120 BKN150
     FM180500 15005KT P6SM SCT150 BKN180
     FM181300 21010KT P6SM SCT090 BKN120
     FM181800 23013G22KT P6SM SCT070 BKN100=

USA.gov is the U.S. government's official web portal to all federal, state and local government web resources and services.